createdAt,value
2023-02-25T00:03:01.848Z,3.10
2023-02-25T00:07:03.893Z,3.20
2023-02-25T00:11:07.367Z,3.50
2023-02-25T00:15:10.326Z,3.50
2023-02-25T00:19:12.259Z,3.70
2023-02-25T00:23:14.034Z,3.60
2023-02-25T00:27:15.850Z,3.50
2023-02-25T00:31:22.138Z,3.60
2023-02-25T00:35:24.190Z,3.90
2023-02-25T00:39:41.806Z,4.00
2023-02-25T00:43:48.590Z,3.90
2023-02-25T00:47:51.126Z,3.90
2023-02-25T00:51:53.197Z,2.90
2023-02-25T00:56:02.127Z,1.90
2023-02-25T01:00:10.157Z,2.50
2023-02-25T01:04:12.527Z,2.30
2023-02-25T01:08:15.343Z,2.40
2023-02-25T01:12:17.088Z,2.40
2023-02-25T01:16:21.759Z,2.50
2023-02-25T01:20:24.419Z,2.60
2023-02-25T01:24:29.631Z,3.00
2023-02-25T01:28:31.520Z,2.40
2023-02-25T01:32:33.513Z,2.50
2023-02-25T01:36:35.628Z,2.80
2023-02-25T01:40:37.929Z,2.90
2023-02-25T01:45:18.113Z,3.10
2023-02-25T01:49:34.315Z,2.60
2023-02-25T01:53:44.758Z,3.30
2023-02-25T01:57:46.923Z,3.40
2023-02-25T02:01:49.770Z,2.90
2023-02-25T02:06:06.412Z,2.40
2023-02-25T02:10:08.944Z,2.60
2023-02-25T02:14:15.591Z,1.90
2023-02-25T02:18:18.176Z,2.70
2023-02-25T02:22:28.773Z,2.60
2023-02-25T02:26:39.906Z,3.10
2023-02-25T02:30:50.634Z,2.90
2023-02-25T02:35:21.081Z,2.60
2023-02-25T02:39:55.414Z,2.30
2023-02-25T02:44:23.923Z,2.40
2023-02-25T02:48:49.006Z,2.10
2023-02-25T02:52:53.295Z,2.50
2023-02-25T02:56:58.353Z,2.90
2023-02-25T03:01:06.036Z,1.90
2023-02-25T03:05:11.661Z,2.20
2023-02-25T03:09:20.896Z,2.40
2023-02-25T03:13:24.581Z,2.00
2023-02-25T03:17:31.064Z,1.80
2023-02-25T03:22:06.688Z,2.20
2023-02-25T03:26:28.312Z,2.50
2023-02-25T03:30:46.908Z,2.60
2023-02-25T03:34:51.349Z,1.70
2023-02-25T03:38:58.040Z,1.30
2023-02-25T03:43:09.981Z,1.80
2023-02-25T03:47:13.795Z,1.40
2023-02-25T03:51:23.571Z,1.20
2023-02-25T03:55:26.038Z,1.80
2023-02-25T03:59:28.238Z,1.70
2023-02-25T04:03:30.218Z,1.50
2023-02-25T04:07:32.324Z,1.90
2023-02-25T04:11:34.303Z,2.30
2023-02-25T04:15:37.707Z,2.70
2023-02-25T04:19:39.657Z,1.60
2023-02-25T04:23:41.499Z,1.80
2023-02-25T04:27:43.332Z,1.50
2023-02-25T04:31:45.560Z,1.90
2023-02-25T04:35:47.466Z,2.30
2023-02-25T04:39:49.279Z,0.10
2023-02-25T04:43:51.048Z,1.00
2023-02-25T04:47:54.181Z,1.10
2023-02-25T04:51:55.932Z,0.10
2023-02-25T04:56:03.559Z,0.70
2023-02-25T05:00:09.089Z,1.10
2023-02-25T05:04:11.232Z,1.20
2023-02-25T05:08:13.055Z,0.50
2023-02-25T05:12:14.865Z,0.60
2023-02-25T05:16:17.621Z,1.40
2023-02-25T05:20:19.839Z,1.80
2023-02-25T05:24:23.448Z,1.30
2023-02-25T05:28:25.574Z,1.90
2023-02-25T05:32:28.034Z,2.40
2023-02-25T05:36:30.367Z,2.50
2023-02-25T05:40:32.808Z,2.60
2023-02-25T05:44:34.683Z,2.40
2023-02-25T05:48:36.488Z,2.40
2023-02-25T05:52:38.307Z,2.30
2023-02-25T05:56:40.074Z,2.30
2023-02-25T06:00:41.883Z,2.30
2023-02-25T06:04:43.690Z,2.10
2023-02-25T06:08:45.460Z,2.40
2023-02-25T06:12:47.215Z,2.40
2023-02-25T06:16:50.631Z,2.70
2023-02-25T06:20:52.400Z,2.70
2023-02-25T06:24:54.157Z,2.80
2023-02-25T06:28:56.780Z,2.80
2023-02-25T06:32:59.027Z,2.60
2023-02-25T06:37:00.963Z,2.50
2023-02-25T06:41:14.056Z,2.70
2023-02-25T06:45:16.469Z,2.90
2023-02-25T06:49:19.104Z,2.80
2023-02-25T06:53:22.591Z,2.80
2023-02-25T06:57:24.402Z,2.90
2023-02-25T07:01:26.646Z,2.80
2023-02-25T07:05:28.790Z,2.50
2023-02-25T07:09:30.598Z,2.50
2023-02-25T07:13:32.368Z,2.80
2023-02-25T07:17:34.179Z,2.70
2023-02-25T07:21:36.035Z,2.70
2023-02-25T07:25:38.744Z,2.70
2023-02-25T07:29:41.279Z,3.00
2023-02-25T07:33:43.707Z,3.10
2023-02-25T07:37:45.563Z,3.30
2023-02-25T07:41:48.376Z,3.20
2023-02-25T07:45:57.539Z,3.30
2023-02-25T07:49:59.563Z,3.50
2023-02-25T07:54:01.467Z,3.70
2023-02-25T07:58:04.488Z,3.80
2023-02-25T08:02:10.296Z,3.80
2023-02-25T08:06:12.285Z,3.90
2023-02-25T08:10:14.055Z,4.00
2023-02-25T08:14:15.909Z,3.40
2023-02-25T08:18:17.744Z,3.60
2023-02-25T08:22:19.557Z,3.10
2023-02-25T08:26:22.705Z,3.30
2023-02-25T08:30:24.547Z,2.50
2023-02-25T08:34:26.358Z,2.80
2023-02-25T08:38:28.560Z,3.00
2023-02-25T08:42:31.320Z,2.30
2023-02-25T08:46:33.600Z,1.50
2023-02-25T08:50:35.691Z,2.20
2023-02-25T08:54:38.736Z,2.30
2023-02-25T08:58:40.681Z,1.20
2023-02-25T09:02:43.243Z,1.20
2023-02-25T09:06:47.457Z,1.50
2023-02-25T09:10:50.792Z,2.20
2023-02-25T09:14:52.996Z,1.80
2023-02-25T09:18:54.871Z,1.30
2023-02-25T09:22:57.430Z,1.20
2023-02-25T09:27:08.053Z,1.10
2023-02-25T09:31:10.226Z,1.40
2023-02-25T09:35:12.554Z,1.50
2023-02-25T09:39:14.375Z,1.00
2023-02-25T09:43:23.376Z,1.10
2023-02-25T09:47:58.783Z,1.50
2023-02-25T09:52:56.101Z,1.50
2023-02-25T09:57:01.764Z,1.30
2023-02-25T10:01:27.115Z,2.10
2023-02-25T10:05:55.365Z,1.20
2023-02-25T10:10:19.824Z,1.70
2023-02-25T10:14:33.514Z,1.30
2023-02-25T10:19:21.184Z,1.00
2023-02-25T10:23:28.916Z,0.80
2023-02-25T10:27:37.371Z,0.10
2023-02-25T10:31:43.964Z,0.60
2023-02-25T10:35:45.926Z,1.20
2023-02-25T10:39:48.682Z,1.50
2023-02-25T10:43:51.668Z,1.80
2023-02-25T10:48:06.577Z,1.80
2023-02-25T10:52:18.708Z,1.50
2023-02-25T10:56:21.415Z,1.50
2023-02-25T11:00:28.929Z,1.30
2023-02-25T11:04:39.424Z,1.60
2023-02-25T11:08:41.478Z,2.10
2023-02-25T11:12:57.047Z,2.50
2023-02-25T11:17:22.147Z,2.80
2023-02-25T11:21:36.538Z,1.80
2023-02-25T11:25:39.804Z,1.40
2023-02-25T11:29:43.776Z,1.80
2023-02-25T11:33:51.855Z,1.90
2023-02-25T11:37:55.481Z,2.40
2023-02-25T11:42:18.516Z,3.00
2023-02-25T11:46:24.643Z,1.70
2023-02-25T11:50:41.854Z,2.40
2023-02-25T11:55:03.915Z,2.70
2023-02-25T11:59:37.729Z,2.40
2023-02-25T12:03:52.125Z,2.60
2023-02-25T12:08:12.304Z,1.70
2023-02-25T12:12:48.423Z,2.10
2023-02-25T12:17:29.712Z,2.60
2023-02-25T12:21:57.466Z,2.80
2023-02-25T12:26:36.813Z,2.60
2023-02-25T12:30:57.275Z,2.30
2023-02-25T12:35:15.400Z,1.60
2023-02-25T12:39:23.337Z,2.10
2023-02-25T12:43:46.737Z,1.90
2023-02-25T12:48:07.229Z,1.20
2023-02-25T12:52:30.222Z,1.10
2023-02-25T12:56:53.234Z,1.10
2023-02-25T13:01:18.905Z,1.30
2023-02-25T13:05:37.509Z,1.40
2023-02-25T13:09:52.972Z,1.00
2023-02-25T13:14:14.105Z,1.40
2023-02-25T13:18:50.849Z,1.60
2023-02-25T13:23:01.483Z,1.30
2023-02-25T13:27:43.591Z,1.20
2023-02-25T13:32:24.109Z,0.70
2023-02-25T13:36:32.123Z,0.90
2023-02-25T13:40:42.722Z,1.50
2023-02-25T13:45:06.560Z,1.30
2023-02-25T13:49:30.100Z,1.60
2023-02-25T13:53:58.976Z,1.90
2023-02-25T13:58:33.129Z,1.90
2023-02-25T14:02:49.779Z,2.20
2023-02-25T14:07:24.705Z,1.70
2023-02-25T14:12:06.334Z,2.20
2023-02-25T14:16:13.287Z,2.30
2023-02-25T14:20:30.581Z,1.90
2023-02-25T14:24:46.348Z,2.00
2023-02-25T14:28:57.750Z,2.50
2023-02-25T14:33:33.668Z,2.50
2023-02-25T14:38:07.701Z,2.20
2023-02-25T14:42:15.197Z,2.50
2023-02-25T14:46:25.878Z,2.20
2023-02-25T14:50:36.634Z,2.20
2023-02-25T14:54:41.173Z,2.50
2023-02-25T14:58:52.124Z,2.30
2023-02-25T15:03:29.639Z,2.70
2023-02-25T15:07:53.728Z,2.90
2023-02-25T15:12:01.831Z,3.30
2023-02-25T15:16:25.156Z,2.60
2023-02-25T15:20:27.320Z,1.40
2023-02-25T15:24:36.106Z,2.00
2023-02-25T15:28:40.800Z,2.50
2023-02-25T15:33:13.708Z,2.40
2023-02-25T15:37:31.599Z,2.50
2023-02-25T15:41:38.721Z,2.70
2023-02-25T15:46:13.805Z,2.20
2023-02-25T15:50:41.879Z,1.90
2023-02-25T15:54:48.244Z,1.70
2023-02-25T15:58:57.268Z,2.00
2023-02-25T16:03:03.664Z,2.20
2023-02-25T16:07:08.396Z,2.40
2023-02-25T16:11:29.977Z,3.00
2023-02-25T16:15:40.269Z,2.90
2023-02-25T16:19:43.281Z,2.70
2023-02-25T16:23:45.260Z,1.50
2023-02-25T16:27:52.468Z,0.80
2023-02-25T16:32:21.147Z,0.30
2023-02-25T16:36:31.728Z,1.10
2023-02-25T16:40:39.771Z,0.30
2023-02-25T16:44:44.878Z,-0.30
2023-02-25T16:48:51.265Z,0.20
2023-02-25T16:52:54.156Z,0.00
2023-02-25T16:56:59.877Z,-1.30
2023-02-25T17:01:03.936Z,-1.70
2023-02-25T17:05:21.371Z,-2.00
2023-02-25T17:09:24.672Z,-1.30
2023-02-25T17:13:33.423Z,-0.60
2023-02-25T17:17:39.835Z,0.30
2023-02-25T17:21:44.326Z,0.80
2023-02-25T17:25:48.851Z,1.10
2023-02-25T17:29:50.980Z,1.00
2023-02-25T17:33:53.912Z,1.20
2023-02-25T17:37:57.076Z,1.50
2023-02-25T17:41:58.854Z,1.50
2023-02-25T17:46:38.261Z,1.60
2023-02-25T17:50:40.544Z,1.50
2023-02-25T17:54:47.157Z,1.60
2023-02-25T17:58:49.565Z,1.80
2023-02-25T18:03:08.128Z,1.70
2023-02-25T18:07:20.594Z,1.70
2023-02-25T18:11:37.609Z,2.00
2023-02-25T18:15:40.284Z,2.00
2023-02-25T18:19:45.948Z,2.00
2023-02-25T18:23:50.750Z,0.10
2023-02-25T18:27:54.538Z,-1.20
2023-02-25T18:31:56.385Z,-1.60
2023-02-25T18:35:58.577Z,-2.80
2023-02-25T18:40:00.701Z,-2.90
2023-02-25T18:44:02.583Z,-2.20
2023-02-25T18:48:04.448Z,-1.30
2023-02-25T18:52:20.441Z,-1.40
2023-02-25T18:56:22.514Z,-1.10
2023-02-25T19:00:29.382Z,-0.80
2023-02-25T19:04:31.245Z,-0.90
2023-02-25T19:08:33.366Z,-0.40
2023-02-25T19:12:35.713Z,0.20
2023-02-25T19:16:38.065Z,0.70
2023-02-25T19:20:42.377Z,0.00
2023-02-25T19:24:47.791Z,0.60
2023-02-25T19:28:49.735Z,1.00
2023-02-25T19:32:51.956Z,1.10
2023-02-25T19:36:53.773Z,0.80
2023-02-25T19:41:00.919Z,0.80
2023-02-25T19:45:03.507Z,0.90
2023-02-25T19:49:05.381Z,0.60
2023-02-25T19:53:07.235Z,0.50
2023-02-25T19:57:11.505Z,-0.80
2023-02-25T20:01:13.380Z,-1.00
2023-02-25T20:05:15.474Z,-1.10
2023-02-25T20:09:19.332Z,-1.50
2023-02-25T20:13:21.252Z,-1.40
2023-02-25T20:17:25.074Z,-0.80
2023-02-25T20:21:28.985Z,-0.30
2023-02-25T20:25:30.768Z,-1.00
2023-02-25T20:29:32.585Z,-1.40
2023-02-25T20:33:35.048Z,-0.70
2023-02-25T20:37:43.100Z,-1.20
2023-02-25T20:41:46.402Z,-1.40
2023-02-25T20:45:48.406Z,-1.20
2023-02-25T20:49:50.910Z,-0.60
2023-02-25T20:53:53.196Z,-1.50
2023-02-25T20:57:55.031Z,-0.70
2023-02-25T21:01:57.820Z,-1.10
2023-02-25T21:05:59.732Z,-1.10
2023-02-25T21:10:01.594Z,-1.10
2023-02-25T21:14:03.486Z,-1.10
2023-02-25T21:18:05.393Z,-1.00
2023-02-25T21:22:07.726Z,-1.30
2023-02-25T21:26:11.236Z,-1.20
2023-02-25T21:30:13.263Z,-0.90
2023-02-25T21:34:15.175Z,-0.30
2023-02-25T21:38:17.110Z,-1.40
2023-02-25T21:42:18.979Z,-1.00
2023-02-25T21:46:20.917Z,-0.70
2023-02-25T21:50:22.783Z,-0.40
2023-02-25T21:54:24.654Z,-0.30
2023-02-25T21:58:26.472Z,-0.60
2023-02-25T22:02:29.730Z,-0.50
2023-02-25T22:06:32.819Z,-1.20
2023-02-25T22:10:35.344Z,-1.70
2023-02-25T22:14:37.152Z,-1.10
2023-02-25T22:18:39.475Z,-1.50
2023-02-25T22:22:41.304Z,-2.20
2023-02-25T22:26:45.688Z,-2.20
2023-02-25T22:30:47.593Z,-2.30
2023-02-25T22:34:49.543Z,-2.20
2023-02-25T22:38:51.349Z,-1.20
2023-02-25T22:42:53.338Z,-0.60
2023-02-25T22:46:55.332Z,-0.60
2023-02-25T22:50:57.177Z,-0.50
2023-02-25T22:54:59.026Z,-0.10
2023-02-25T22:59:01.198Z,-1.00
2023-02-25T23:03:03.593Z,-1.90
2023-02-25T23:07:05.741Z,-1.80
2023-02-25T23:11:21.041Z,-1.70
2023-02-25T23:15:23.090Z,-2.30
2023-02-25T23:19:24.918Z,-2.30
2023-02-25T23:23:38.235Z,-3.30
2023-02-25T23:27:40.107Z,-2.50
2023-02-25T23:31:45.096Z,-2.60
2023-02-25T23:35:49.655Z,-2.80
2023-02-25T23:39:51.503Z,-3.00
2023-02-25T23:44:00.518Z,-3.60
2023-02-25T23:48:02.564Z,-3.90
2023-02-25T23:52:04.413Z,-4.00
2023-02-25T23:56:12.144Z,-2.90
